<?xml version="1.0" encoding="UTF-8" standalone="no" ?>
<gpx xmlns="http://www.topografix.com/GPX/1/1" xmlns:xsi="http://www.w3.org/2001/XMLSchema-instance" xsi:schemaLocation="http://www.topografix.com/GPX/1/1 http://www.topografix.com/GPX/1/1/gpx.xsd" version="1.1" creator="VisuGPX - https://www.visugpx.com">
  <metadata>
    <name>Sortie du 03/03/2012</name>
    <desc><![CDATA[Virée sympa ]]></desc>
  </metadata>
  <trk>
    <name><![CDATA[Sortie quad]]></name>
    <desc><![CDATA[(null)]]></desc>
    <trkseg>
      <trkpt lat="49.32115" lon="3.18092">
        <ele>24.450451</ele>
        <time>2012-03-03T14:22:07Z</time>
      </trkpt>
      <trkpt lat="49.32115" lon="3.18092">
        <ele>24.450451</ele>
        <time>2012-03-03T14:22:08Z</time>
      </trkpt>
      <trkpt lat="49.32115" lon="3.18092">
        <ele>24.450451</ele>
        <time>2012-03-03T14:22:15Z</time>
      </trkpt>
      <trkpt lat="49.32069" lon="3.18223">
        <ele>110.450211</ele>
        <time>2012-03-03T14:22:45Z</time>
      </trkpt>
      <trkpt lat="49.31975" lon="3.18221">
        <ele>101.44989</ele>
        <time>2012-03-03T14:22:55Z</time>
      </trkpt>
      <trkpt lat="49.3193" lon="3.18096">
        <ele>100.449821</ele>
        <time>2012-03-03T14:23:06Z</time>
      </trkpt>
      <trkpt lat="49.31871" lon="3.17982">
        <ele>98.449692</ele>
        <time>2012-03-03T14:23:19Z</time>
      </trkpt>
      <trkpt lat="49.31781" lon="3.17944">
        <ele>96.449409</ele>
        <time>2012-03-03T14:23:30Z</time>
      </trkpt>
      <trkpt lat="49.31743" lon="3.17817">
        <ele>88.449364</ele>
        <time>2012-03-03T14:23:43Z</time>
      </trkpt>
      <trkpt lat="49.31718" lon="3.17677">
        <ele>79.449371</ele>
        <time>2012-03-03T14:23:56Z</time>
      </trkpt>
      <trkpt lat="49.31759" lon="3.17539">
        <ele>65.4496</ele>
        <time>2012-03-03T14:24:12Z</time>
      </trkpt>
      <trkpt lat="49.31827" lon="3.17438">
        <ele>57.449902</ele>
        <time>2012-03-03T14:24:26Z</time>
      </trkpt>
      <trkpt lat="49.31882" lon="3.17323">
        <ele>49.450169</ele>
        <time>2012-03-03T14:24:39Z</time>
      </trkpt>
      <trkpt lat="49.31907" lon="3.17187">
        <ele>46.450336</ele>
        <time>2012-03-03T14:24:48Z</time>
      </trkpt>
      <trkpt lat="49.31904" lon="3.17045">
        <ele>41.45042</ele>
        <time>2012-03-03T14:25:00Z</time>
      </trkpt>
      <trkpt lat="49.31905" lon="3.16904">
        <ele>33.45052</ele>
        <time>2012-03-03T14:25:14Z</time>
      </trkpt>
      <trkpt lat="49.31892" lon="3.16759">
        <ele>26.450573</ele>
        <time>2012-03-03T14:25:26Z</time>
      </trkpt>
      <trkpt lat="49.31912" lon="3.16618">
        <ele>24.450729</ele>
        <time>2012-03-03T14:25:37Z</time>
      </trkpt>
      <trkpt lat="49.31937" lon="3.16476">
        <ele>21.450912</ele>
        <time>2012-03-03T14:25:45Z</time>
      </trkpt>
      <trkpt lat="49.31932" lon="3.16338">
        <ele>20.450985</ele>
        <time>2012-03-03T14:25:59Z</time>
      </trkpt>
      <trkpt lat="49.31935" lon="3.16194">
        <ele>23.451096</ele>
        <time>2012-03-03T14:26:16Z</time>
      </trkpt>
      <trkpt lat="49.31908" lon="3.16062">
        <ele>23.451084</ele>
        <time>2012-03-03T14:26:28Z</time>
      </trkpt>
      <trkpt lat="49.31821" lon="3.16022">
        <ele>24.450813</ele>
        <time>2012-03-03T14:27:02Z</time>
      </trkpt>
      <trkpt lat="49.31905" lon="3.1597">
        <ele>65.451134</ele>
        <time>2012-03-03T14:28:44Z</time>
      </trkpt>
      <trkpt lat="49.32012" lon="3.15953">
        <ele>68.451508</ele>
        <time>2012-03-03T14:30:17Z</time>
      </trkpt>
      <trkpt lat="49.32099" lon="3.15997">
        <ele>65.451782</ele>
        <time>2012-03-03T14:31:04Z</time>
      </trkpt>
      <trkpt lat="49.32181" lon="3.1607">
        <ele>68.452011</ele>
        <time>2012-03-03T14:33:40Z</time>
      </trkpt>
      <trkpt lat="49.32257" lon="3.16142">
        <ele>61.452225</ele>
        <time>2012-03-03T14:34:02Z</time>
      </trkpt>
      <trkpt lat="49.32348" lon="3.16188">
        <ele>58.452503</ele>
        <time>2012-03-03T14:34:15Z</time>
      </trkpt>
      <trkpt lat="49.32446" lon="3.16208">
        <ele>57.452831</ele>
        <time>2012-03-03T14:34:24Z</time>
      </trkpt>
      <trkpt lat="49.3255" lon="3.16201">
        <ele>52.453186</ele>
        <time>2012-03-03T14:34:50Z</time>
      </trkpt>
      <trkpt lat="49.32637" lon="3.16137">
        <ele>53.453526</ele>
        <time>2012-03-03T14:34:58Z</time>
      </trkpt>
      <trkpt lat="49.32736" lon="3.16109">
        <ele>54.453884</ele>
        <time>2012-03-03T14:35:04Z</time>
      </trkpt>
      <trkpt lat="49.32826" lon="3.16053">
        <ele>53.454227</ele>
        <time>2012-03-03T14:35:09Z</time>
      </trkpt>
      <trkpt lat="49.32905" lon="3.15971">
        <ele>51.454556</ele>
        <time>2012-03-03T14:35:14Z</time>
      </trkpt>
      <trkpt lat="49.32991" lon="3.15912">
        <ele>50.454887</ele>
        <time>2012-03-03T14:35:21Z</time>
      </trkpt>
      <trkpt lat="49.33074" lon="3.15856">
        <ele>49.455208</ele>
        <time>2012-03-03T14:35:27Z</time>
      </trkpt>
      <trkpt lat="49.33156" lon="3.15776">
        <ele>49.45554</ele>
        <time>2012-03-03T14:35:33Z</time>
      </trkpt>
      <trkpt lat="49.33242" lon="3.15731">
        <ele>49.455868</ele>
        <time>2012-03-03T14:35:44Z</time>
      </trkpt>
      <trkpt lat="49.33339" lon="3.15737">
        <ele>49.4562</ele>
        <time>2012-03-03T14:35:53Z</time>
      </trkpt>
      <trkpt lat="49.33426" lon="3.15792">
        <ele>49.456455</ele>
        <time>2012-03-03T14:36:02Z</time>
      </trkpt>
      <trkpt lat="49.33517" lon="3.15835">
        <ele>49.456738</ele>
        <time>2012-03-03T14:36:14Z</time>
      </trkpt>
      <trkpt lat="49.33578" lon="3.15947">
        <ele>51.456871</ele>
        <time>2012-03-03T14:36:35Z</time>
      </trkpt>
      <trkpt lat="49.33645" lon="3.1606">
        <ele>49.457027</ele>
        <time>2012-03-03T14:36:45Z</time>
      </trkpt>
      <trkpt lat="49.33731" lon="3.16133">
        <ele>50.457272</ele>
        <time>2012-03-03T14:36:53Z</time>
      </trkpt>
      <trkpt lat="49.33792" lon="3.16239">
        <ele>50.457405</ele>
        <time>2012-03-03T14:37:01Z</time>
      </trkpt>
      <trkpt lat="49.33842" lon="3.16356">
        <ele>50.457508</ele>
        <time>2012-03-03T14:37:09Z</time>
      </trkpt>
      <trkpt lat="49.33854" lon="3.16495">
        <ele>52.457443</ele>
        <time>2012-03-03T14:37:18Z</time>
      </trkpt>
      <trkpt lat="49.33882" lon="3.16632">
        <ele>54.457455</ele>
        <time>2012-03-03T14:37:28Z</time>
      </trkpt>
      <trkpt lat="49.33928" lon="3.1676">
        <ele>54.457527</ele>
        <time>2012-03-03T14:37:38Z</time>
      </trkpt>
      <trkpt lat="49.33992" lon="3.16872">
        <ele>54.457668</ele>
        <time>2012-03-03T14:37:48Z</time>
      </trkpt>
      <trkpt lat="49.34016" lon="3.17007">
        <ele>64.457657</ele>
        <time>2012-03-03T14:37:59Z</time>
      </trkpt>
      <trkpt lat="49.34036" lon="3.17143">
        <ele>69.457642</ele>
        <time>2012-03-03T14:38:11Z</time>
      </trkpt>
      <trkpt lat="49.34062" lon="3.17281">
        <ele>118.457626</ele>
        <time>2012-03-03T14:42:14Z</time>
      </trkpt>
      <trkpt lat="49.34098" lon="3.17424">
        <ele>121.457657</ele>
        <time>2012-03-03T14:42:25Z</time>
      </trkpt>
      <trkpt lat="49.34132" lon="3.17568">
        <ele>122.45768</ele>
        <time>2012-03-03T14:42:33Z</time>
      </trkpt>
      <trkpt lat="49.34162" lon="3.17703">
        <ele>124.457687</ele>
        <time>2012-03-03T14:42:40Z</time>
      </trkpt>
      <trkpt lat="49.3418" lon="3.17842">
        <ele>124.457664</ele>
        <time>2012-03-03T14:42:48Z</time>
      </trkpt>
      <trkpt lat="49.34199" lon="3.17981">
        <ele>125.457634</ele>
        <time>2012-03-03T14:42:55Z</time>
      </trkpt>
      <trkpt lat="49.34215" lon="3.1812">
        <ele>126.457596</ele>
        <time>2012-03-03T14:43:01Z</time>
      </trkpt>
      <trkpt lat="49.34226" lon="3.18258">
        <ele>126.457535</ele>
        <time>2012-03-03T14:43:07Z</time>
      </trkpt>
      <trkpt lat="49.34259" lon="3.18392">
        <ele>127.457565</ele>
        <time>2012-03-03T14:43:13Z</time>
      </trkpt>
      <trkpt lat="49.34302" lon="3.18518">
        <ele>128.457611</ele>
        <time>2012-03-03T14:43:20Z</time>
      </trkpt>
      <trkpt lat="49.34345" lon="3.18644">
        <ele>127.457687</ele>
        <time>2012-03-03T14:43:27Z</time>
      </trkpt>
      <trkpt lat="49.34387" lon="3.18786">
        <ele>128.457733</ele>
        <time>2012-03-03T14:43:33Z</time>
      </trkpt>
      <trkpt lat="49.34431" lon="3.18925">
        <ele>128.457794</ele>
        <time>2012-03-03T14:43:40Z</time>
      </trkpt>
      <trkpt lat="49.34526" lon="3.18922">
        <ele>122.458115</ele>
        <time>2012-03-03T14:43:57Z</time>
      </trkpt>
      <trkpt lat="49.34606" lon="3.18846">
        <ele>114.458435</ele>
        <time>2012-03-03T14:44:08Z</time>
      </trkpt>
      <trkpt lat="49.34696" lon="3.18785">
        <ele>106.458786</ele>
        <time>2012-03-03T14:44:18Z</time>
      </trkpt>
      <trkpt lat="49.34786" lon="3.18755">
        <ele>69.459106</ele>
        <time>2012-03-03T14:45:52Z</time>
      </trkpt>
      <trkpt lat="49.34878" lon="3.18765">
        <ele>58.459419</ele>
        <time>2012-03-03T14:46:05Z</time>
      </trkpt>
      <trkpt lat="49.34923" lon="3.18634">
        <ele>52.45966</ele>
        <time>2012-03-03T14:46:34Z</time>
      </trkpt>
      <trkpt lat="49.34916" lon="3.18483">
        <ele>55.45974</ele>
        <time>2012-03-03T14:46:50Z</time>
      </trkpt>
      <trkpt lat="49.34994" lon="3.18405">
        <ele>57.460056</ele>
        <time>2012-03-03T14:47:15Z</time>
      </trkpt>
      <trkpt lat="49.35087" lon="3.18403">
        <ele>62.460377</ele>
        <time>2012-03-03T14:47:28Z</time>
      </trkpt>
      <trkpt lat="49.35099" lon="3.18258">
        <ele>115.46051</ele>
        <time>2012-03-03T14:49:34Z</time>
      </trkpt>
      <trkpt lat="49.35114" lon="3.18111">
        <ele>117.460663</ele>
        <time>2012-03-03T14:49:44Z</time>
      </trkpt>
      <trkpt lat="49.3514" lon="3.17973">
        <ele>116.460846</ele>
        <time>2012-03-03T14:49:53Z</time>
      </trkpt>
      <trkpt lat="49.35172" lon="3.17843">
        <ele>116.461044</ele>
        <time>2012-03-03T14:50:02Z</time>
      </trkpt>
      <trkpt lat="49.35266" lon="3.17809">
        <ele>111.461388</ele>
        <time>2012-03-03T14:50:16Z</time>
      </trkpt>
      <trkpt lat="49.3536" lon="3.17779">
        <ele>117.461731</ele>
        <time>2012-03-03T14:51:10Z</time>
      </trkpt>
      <trkpt lat="49.35438" lon="3.17692">
        <ele>109.462051</ele>
        <time>2012-03-03T14:51:23Z</time>
      </trkpt>
      <trkpt lat="49.35515" lon="3.17605">
        <ele>95.462372</ele>
        <time>2012-03-03T14:51:39Z</time>
      </trkpt>
      <trkpt lat="49.35572" lon="3.17484">
        <ele>94.462646</ele>
        <time>2012-03-03T14:51:47Z</time>
      </trkpt>
      <trkpt lat="49.35667" lon="3.17452">
        <ele>89.462997</ele>
        <time>2012-03-03T14:51:58Z</time>
      </trkpt>
      <trkpt lat="49.35761" lon="3.17481">
        <ele>84.463303</ele>
        <time>2012-03-03T14:52:05Z</time>
      </trkpt>
      <trkpt lat="49.35856" lon="3.17498">
        <ele>81.463608</ele>
        <time>2012-03-03T14:52:12Z</time>
      </trkpt>
      <trkpt lat="49.35947" lon="3.1751">
        <ele>79.463913</ele>
        <time>2012-03-03T14:52:19Z</time>
      </trkpt>
      <trkpt lat="49.36041" lon="3.17522">
        <ele>77.464226</ele>
        <time>2012-03-03T14:52:27Z</time>
      </trkpt>
      <trkpt lat="49.36132" lon="3.17562">
        <ele>73.464508</ele>
        <time>2012-03-03T14:52:38Z</time>
      </trkpt>
      <trkpt lat="49.36228" lon="3.17583">
        <ele>72.464828</ele>
        <time>2012-03-03T14:52:47Z</time>
      </trkpt>
      <trkpt lat="49.36313" lon="3.17632">
        <ele>73.465073</ele>
        <time>2012-03-03T14:52:57Z</time>
      </trkpt>
      <trkpt lat="49.36403" lon="3.17676">
        <ele>69.465363</ele>
        <time>2012-03-03T14:53:09Z</time>
      </trkpt>
      <trkpt lat="49.36485" lon="3.17742">
        <ele>66.465591</ele>
        <time>2012-03-03T14:53:18Z</time>
      </trkpt>
      <trkpt lat="49.36554" lon="3.1784">
        <ele>65.465759</ele>
        <time>2012-03-03T14:53:29Z</time>
      </trkpt>
      <trkpt lat="49.36637" lon="3.17903">
        <ele>68.466003</ele>
        <time>2012-03-03T14:53:37Z</time>
      </trkpt>
      <trkpt lat="49.36719" lon="3.17972">
        <ele>52.466232</ele>
        <time>2012-03-03T14:53:58Z</time>
      </trkpt>
      <trkpt lat="49.36755" lon="3.18104">
        <ele>48.466263</ele>
        <time>2012-03-03T14:54:08Z</time>
      </trkpt>
      <trkpt lat="49.36846" lon="3.18125">
        <ele>44.46656</ele>
        <time>2012-03-03T14:54:22Z</time>
      </trkpt>
      <trkpt lat="49.36934" lon="3.1808">
        <ele>42.466892</ele>
        <time>2012-03-03T14:54:36Z</time>
      </trkpt>
      <trkpt lat="49.37016" lon="3.18018">
        <ele>40.467216</ele>
        <time>2012-03-03T14:54:49Z</time>
      </trkpt>
      <trkpt lat="49.36983" lon="3.18156">
        <ele>43.467007</ele>
        <time>2012-03-03T14:55:04Z</time>
      </trkpt>
      <trkpt lat="49.36994" lon="3.18304">
        <ele>54.466938</ele>
        <time>2012-03-03T14:55:15Z</time>
      </trkpt>
      <trkpt lat="49.37026" lon="3.18435">
        <ele>59.466961</ele>
        <time>2012-03-03T14:55:24Z</time>
      </trkpt>
      <trkpt lat="49.37029" lon="3.18583">
        <ele>68.466873</ele>
        <time>2012-03-03T14:55:38Z</time>
      </trkpt>
      <trkpt lat="49.37107" lon="3.18676">
        <ele>71.467072</ele>
        <time>2012-03-03T14:55:48Z</time>
      </trkpt>
      <trkpt lat="49.37194" lon="3.18741">
        <ele>65.467323</ele>
        <time>2012-03-03T14:56:00Z</time>
      </trkpt>
      <trkpt lat="49.37267" lon="3.18837">
        <ele>49.467506</ele>
        <time>2012-03-03T14:56:19Z</time>
      </trkpt>
      <trkpt lat="49.37311" lon="3.18963">
        <ele>49.467567</ele>
        <time>2012-03-03T14:56:33Z</time>
      </trkpt>
      <trkpt lat="49.37326" lon="3.19107">
        <ele>48.467518</ele>
        <time>2012-03-03T14:56:46Z</time>
      </trkpt>
      <trkpt lat="49.37387" lon="3.19215">
        <ele>49.467659</ele>
        <time>2012-03-03T14:57:06Z</time>
      </trkpt>
      <trkpt lat="49.37419" lon="3.19352">
        <ele>54.46767</ele>
        <time>2012-03-03T14:57:16Z</time>
      </trkpt>
      <trkpt lat="49.37329" lon="3.19372">
        <ele>44.46735</ele>
        <time>2012-03-03T14:57:45Z</time>
      </trkpt>
      <trkpt lat="49.37272" lon="3.19479">
        <ele>47.467083</ele>
        <time>2012-03-03T14:58:16Z</time>
      </trkpt>
      <trkpt lat="49.37212" lon="3.19595">
        <ele>56.466797</ele>
        <time>2012-03-03T14:58:30Z</time>
      </trkpt>
      <trkpt lat="49.37215" lon="3.1974">
        <ele>71.466705</ele>
        <time>2012-03-03T14:58:41Z</time>
      </trkpt>
      <trkpt lat="49.3723" lon="3.19876">
        <ele>79.466667</ele>
        <time>2012-03-03T14:58:50Z</time>
      </trkpt>
      <trkpt lat="49.37215" lon="3.20014">
        <ele>85.466522</ele>
        <time>2012-03-03T14:58:59Z</time>
      </trkpt>
      <trkpt lat="49.37169" lon="3.20144">
        <ele>89.466278</ele>
        <time>2012-03-03T14:59:07Z</time>
      </trkpt>
      <trkpt lat="49.37239" lon="3.20235">
        <ele>102.466446</ele>
        <time>2012-03-03T14:59:23Z</time>
      </trkpt>
      <trkpt lat="49.37329" lon="3.20253">
        <ele>107.466751</ele>
        <time>2012-03-03T14:59:30Z</time>
      </trkpt>
      <trkpt lat="49.37374" lon="3.2038">
        <ele>113.466812</ele>
        <time>2012-03-03T14:59:46Z</time>
      </trkpt>
      <trkpt lat="49.37346" lon="3.20512">
        <ele>115.466629</ele>
        <time>2012-03-03T14:59:53Z</time>
      </trkpt>
      <trkpt lat="49.37312" lon="3.20663">
        <ele>118.466408</ele>
        <time>2012-03-03T15:00:00Z</time>
      </trkpt>
      <trkpt lat="49.37285" lon="3.208">
        <ele>120.466217</ele>
        <time>2012-03-03T15:00:06Z</time>
      </trkpt>
      <trkpt lat="49.37256" lon="3.20933">
        <ele>121.466034</ele>
        <time>2012-03-03T15:00:12Z</time>
      </trkpt>
      <trkpt lat="49.37226" lon="3.21086">
        <ele>124.46582</ele>
        <time>2012-03-03T15:00:19Z</time>
      </trkpt>
      <trkpt lat="49.37195" lon="3.21223">
        <ele>127.465622</ele>
        <time>2012-03-03T15:00:26Z</time>
      </trkpt>
      <trkpt lat="49.37272" lon="3.21296">
        <ele>129.465836</ele>
        <time>2012-03-03T15:00:42Z</time>
      </trkpt>
      <trkpt lat="49.37363" lon="3.21321">
        <ele>131.466125</ele>
        <time>2012-03-03T15:00:52Z</time>
      </trkpt>
      <trkpt lat="49.37459" lon="3.21339">
        <ele>128.466431</ele>
        <time>2012-03-03T15:01:01Z</time>
      </trkpt>
      <trkpt lat="49.37549" lon="3.21352">
        <ele>126.466736</ele>
        <time>2012-03-03T15:01:10Z</time>
      </trkpt>
      <trkpt lat="49.37633" lon="3.21425">
        <ele>126.466972</ele>
        <time>2012-03-03T15:01:19Z</time>
      </trkpt>
      <trkpt lat="49.37727" lon="3.21472">
        <ele>122.467255</ele>
        <time>2012-03-03T15:01:28Z</time>
      </trkpt>
      <trkpt lat="49.37821" lon="3.21514">
        <ele>121.467545</ele>
        <time>2012-03-03T15:01:38Z</time>
      </trkpt>
      <trkpt lat="49.37912" lon="3.21552">
        <ele>118.467827</ele>
        <time>2012-03-03T15:01:46Z</time>
      </trkpt>
      <trkpt lat="49.38005" lon="3.21599">
        <ele>114.468109</ele>
        <time>2012-03-03T15:01:55Z</time>
      </trkpt>
      <trkpt lat="49.38095" lon="3.21669">
        <ele>114.468369</ele>
        <time>2012-03-03T15:02:03Z</time>
      </trkpt>
      <trkpt lat="49.38183" lon="3.21723">
        <ele>111.468628</ele>
        <time>2012-03-03T15:02:12Z</time>
      </trkpt>
      <trkpt lat="49.38267" lon="3.21664">
        <ele>104.468956</ele>
        <time>2012-03-03T15:02:24Z</time>
      </trkpt>
      <trkpt lat="49.38212" lon="3.21781">
        <ele>104.468689</ele>
        <time>2012-03-03T15:07:15Z</time>
      </trkpt>
      <trkpt lat="49.38226" lon="3.21934">
        <ele>104.468628</ele>
        <time>2012-03-03T15:07:24Z</time>
      </trkpt>
      <trkpt lat="49.38217" lon="3.22079">
        <ele>107.468506</ele>
        <time>2012-03-03T15:07:33Z</time>
      </trkpt>
      <trkpt lat="49.38189" lon="3.22211">
        <ele>109.468323</ele>
        <time>2012-03-03T15:07:41Z</time>
      </trkpt>
      <trkpt lat="49.3817" lon="3.22346">
        <ele>108.468155</ele>
        <time>2012-03-03T15:07:50Z</time>
      </trkpt>
      <trkpt lat="49.38136" lon="3.22486">
        <ele>109.467949</ele>
        <time>2012-03-03T15:08:00Z</time>
      </trkpt>
      <trkpt lat="49.3809" lon="3.22605">
        <ele>109.467705</ele>
        <time>2012-03-03T15:08:09Z</time>
      </trkpt>
      <trkpt lat="49.38019" lon="3.22714">
        <ele>114.467392</ele>
        <time>2012-03-03T15:08:16Z</time>
      </trkpt>
      <trkpt lat="49.37964" lon="3.22827">
        <ele>118.467133</ele>
        <time>2012-03-03T15:08:32Z</time>
      </trkpt>
      <trkpt lat="49.37945" lon="3.22963">
        <ele>120.466972</ele>
        <time>2012-03-03T15:08:39Z</time>
      </trkpt>
      <trkpt lat="49.37904" lon="3.23094">
        <ele>118.466736</ele>
        <time>2012-03-03T15:08:47Z</time>
      </trkpt>
      <trkpt lat="49.37853" lon="3.23217">
        <ele>116.466492</ele>
        <time>2012-03-03T15:08:58Z</time>
      </trkpt>
      <trkpt lat="49.37802" lon="3.23336">
        <ele>117.466225</ele>
        <time>2012-03-03T15:09:12Z</time>
      </trkpt>
      <trkpt lat="49.37884" lon="3.23267">
        <ele>110.466553</ele>
        <time>2012-03-03T15:09:41Z</time>
      </trkpt>
      <trkpt lat="49.3791" lon="3.23122">
        <ele>107.466736</ele>
        <time>2012-03-03T15:10:13Z</time>
      </trkpt>
      <trkpt lat="49.37935" lon="3.22977">
        <ele>106.466927</ele>
        <time>2012-03-03T15:10:55Z</time>
      </trkpt>
      <trkpt lat="49.37964" lon="3.22836">
        <ele>108.467117</ele>
        <time>2012-03-03T15:11:04Z</time>
      </trkpt>
      <trkpt lat="49.38051" lon="3.22889">
        <ele>110.467377</ele>
        <time>2012-03-03T15:11:29Z</time>
      </trkpt>
      <trkpt lat="49.38074" lon="3.23029">
        <ele>105.467361</ele>
        <time>2012-03-03T15:11:43Z</time>
      </trkpt>
      <trkpt lat="49.3807" lon="3.2317">
        <ele>96.467255</ele>
        <time>2012-03-03T15:11:58Z</time>
      </trkpt>
      <trkpt lat="49.38079" lon="3.2331">
        <ele>85.467178</ele>
        <time>2012-03-03T15:12:16Z</time>
      </trkpt>
      <trkpt lat="49.38129" lon="3.23429">
        <ele>78.46727</ele>
        <time>2012-03-03T15:12:27Z</time>
      </trkpt>
      <trkpt lat="49.38066" lon="3.23531">
        <ele>60.466991</ele>
        <time>2012-03-03T15:22:05Z</time>
      </trkpt>
      <trkpt lat="49.38049" lon="3.2368">
        <ele>55.466827</ele>
        <time>2012-03-03T15:22:16Z</time>
      </trkpt>
      <trkpt lat="49.37957" lon="3.2371">
        <ele>53.466492</ele>
        <time>2012-03-03T15:22:34Z</time>
      </trkpt>
      <trkpt lat="49.37923" lon="3.23845">
        <ele>54.466286</ele>
        <time>2012-03-03T15:22:48Z</time>
      </trkpt>
      <trkpt lat="49.3791" lon="3.2399">
        <ele>49.466141</ele>
        <time>2012-03-03T15:23:00Z</time>
      </trkpt>
      <trkpt lat="49.37937" lon="3.24137">
        <ele>46.466133</ele>
        <time>2012-03-03T15:23:09Z</time>
      </trkpt>
      <trkpt lat="49.38001" lon="3.24245">
        <ele>45.466274</ele>
        <time>2012-03-03T15:23:17Z</time>
      </trkpt>
      <trkpt lat="49.38061" lon="3.2435">
        <ele>45.466404</ele>
        <time>2012-03-03T15:23:25Z</time>
      </trkpt>
      <trkpt lat="49.381" lon="3.24485">
        <ele>43.466442</ele>
        <time>2012-03-03T15:23:34Z</time>
      </trkpt>
      <trkpt lat="49.38104" lon="3.24633">
        <ele>42.466351</ele>
        <time>2012-03-03T15:23:44Z</time>
      </trkpt>
      <trkpt lat="49.38128" lon="3.24774">
        <ele>37.466339</ele>
        <time>2012-03-03T15:23:55Z</time>
      </trkpt>
      <trkpt lat="49.38111" lon="3.24922">
        <ele>37.466179</ele>
        <time>2012-03-03T15:24:06Z</time>
      </trkpt>
      <trkpt lat="49.38035" lon="3.24999">
        <ele>52.465866</ele>
        <time>2012-03-03T15:24:27Z</time>
      </trkpt>
      <trkpt lat="49.37986" lon="3.24882">
        <ele>56.465782</ele>
        <time>2012-03-03T15:24:47Z</time>
      </trkpt>
      <trkpt lat="49.37946" lon="3.24756">
        <ele>65.465729</ele>
        <time>2012-03-03T15:25:06Z</time>
      </trkpt>
      <trkpt lat="49.37928" lon="3.2462">
        <ele>67.465775</ele>
        <time>2012-03-03T15:25:16Z</time>
      </trkpt>
      <trkpt lat="49.37874" lon="3.24503">
        <ele>67.465668</ele>
        <time>2012-03-03T15:25:27Z</time>
      </trkpt>
      <trkpt lat="49.37787" lon="3.24452">
        <ele>75.465408</ele>
        <time>2012-03-03T15:25:39Z</time>
      </trkpt>
      <trkpt lat="49.37743" lon="3.2458">
        <ele>89.465172</ele>
        <time>2012-03-03T15:25:55Z</time>
      </trkpt>
      <trkpt lat="49.37682" lon="3.24681">
        <ele>100.46489</ele>
        <time>2012-03-03T15:26:08Z</time>
      </trkpt>
      <trkpt lat="49.37634" lon="3.24811">
        <ele>107.464645</ele>
        <time>2012-03-03T15:26:17Z</time>
      </trkpt>
      <trkpt lat="49.37571" lon="3.24911">
        <ele>110.464355</ele>
        <time>2012-03-03T15:26:27Z</time>
      </trkpt>
      <trkpt lat="49.37512" lon="3.25016">
        <ele>114.464096</ele>
        <time>2012-03-03T15:26:37Z</time>
      </trkpt>
      <trkpt lat="49.37421" lon="3.25047">
        <ele>116.46376</ele>
        <time>2012-03-03T15:26:49Z</time>
      </trkpt>
      <trkpt lat="49.3744" lon="3.25188">
        <ele>101.46373</ele>
        <time>2012-03-03T15:27:19Z</time>
      </trkpt>
      <trkpt lat="49.37478" lon="3.25312">
        <ele>99.463776</ele>
        <time>2012-03-03T15:27:29Z</time>
      </trkpt>
      <trkpt lat="49.37507" lon="3.25451">
        <ele>91.463776</ele>
        <time>2012-03-03T15:27:44Z</time>
      </trkpt>
      <trkpt lat="49.37545" lon="3.25579">
        <ele>74.463814</ele>
        <time>2012-03-03T15:28:02Z</time>
      </trkpt>
      <trkpt lat="49.37606" lon="3.25683">
        <ele>68.463951</ele>
        <time>2012-03-03T15:28:19Z</time>
      </trkpt>
      <trkpt lat="49.37653" lon="3.25803">
        <ele>61.464027</ele>
        <time>2012-03-03T15:28:33Z</time>
      </trkpt>
      <trkpt lat="49.37719" lon="3.25903">
        <ele>57.46418</ele>
        <time>2012-03-03T15:28:42Z</time>
      </trkpt>
      <trkpt lat="49.37662" lon="3.25794">
        <ele>42.464066</ele>
        <time>2012-03-03T15:29:28Z</time>
      </trkpt>
      <trkpt lat="49.37621" lon="3.25661">
        <ele>45.464012</ele>
        <time>2012-03-03T15:29:44Z</time>
      </trkpt>
      <trkpt lat="49.37574" lon="3.25537">
        <ele>46.46394</ele>
        <time>2012-03-03T15:29:58Z</time>
      </trkpt>
      <trkpt lat="49.37509" lon="3.25434">
        <ele>53.463795</ele>
        <time>2012-03-03T15:30:13Z</time>
      </trkpt>
      <trkpt lat="49.37464" lon="3.25315">
        <ele>56.463722</ele>
        <time>2012-03-03T15:30:23Z</time>
      </trkpt>
      <trkpt lat="49.37425" lon="3.25189">
        <ele>60.46368</ele>
        <time>2012-03-03T15:30:32Z</time>
      </trkpt>
      <trkpt lat="49.37401" lon="3.25047">
        <ele>73.463699</ele>
        <time>2012-03-03T15:30:45Z</time>
      </trkpt>
      <trkpt lat="49.37349" lon="3.24928">
        <ele>112.463608</ele>
        <time>2012-03-03T15:33:04Z</time>
      </trkpt>
      <trkpt lat="49.37272" lon="3.2482">
        <ele>115.463417</ele>
        <time>2012-03-03T15:33:11Z</time>
      </trkpt>
      <trkpt lat="49.37194" lon="3.24749">
        <ele>116.463203</ele>
        <time>2012-03-03T15:33:17Z</time>
      </trkpt>
      <trkpt lat="49.37107" lon="3.24671">
        <ele>118.462959</ele>
        <time>2012-03-03T15:33:24Z</time>
      </trkpt>
      <trkpt lat="49.37023" lon="3.24588">
        <ele>121.462738</ele>
        <time>2012-03-03T15:33:32Z</time>
      </trkpt>
      <trkpt lat="49.36939" lon="3.24507">
        <ele>121.462509</ele>
        <time>2012-03-03T15:33:39Z</time>
      </trkpt>
      <trkpt lat="49.36869" lon="3.24399">
        <ele>122.462341</ele>
        <time>2012-03-03T15:33:46Z</time>
      </trkpt>
      <trkpt lat="49.36791" lon="3.24322">
        <ele>124.462128</ele>
        <time>2012-03-03T15:33:53Z</time>
      </trkpt>
      <trkpt lat="49.36768" lon="3.24455">
        <ele>122.46196</ele>
        <time>2012-03-03T15:34:08Z</time>
      </trkpt>
      <trkpt lat="49.36803" lon="3.24588">
        <ele>122.46199</ele>
        <time>2012-03-03T15:34:19Z</time>
      </trkpt>
      <trkpt lat="49.36883" lon="3.24662">
        <ele>107.462212</ele>
        <time>2012-03-03T15:34:30Z</time>
      </trkpt>
      <trkpt lat="49.36866" lon="3.24801">
        <ele>63.462063</ele>
        <time>2012-03-03T15:34:57Z</time>
      </trkpt>
      <trkpt lat="49.36869" lon="3.24958">
        <ele>54.461964</ele>
        <time>2012-03-03T15:35:08Z</time>
      </trkpt>
      <trkpt lat="49.36901" lon="3.25091">
        <ele>48.461979</ele>
        <time>2012-03-03T15:35:26Z</time>
      </trkpt>
      <trkpt lat="49.36978" lon="3.25191">
        <ele>62.46217</ele>
        <time>2012-03-03T15:36:02Z</time>
      </trkpt>
      <trkpt lat="49.37043" lon="3.25302">
        <ele>60.462311</ele>
        <time>2012-03-03T15:36:10Z</time>
      </trkpt>
      <trkpt lat="49.37045" lon="3.2544">
        <ele>61.462223</ele>
        <time>2012-03-03T15:36:18Z</time>
      </trkpt>
      <trkpt lat="49.36961" lon="3.25371">
        <ele>59.46199</ele>
        <time>2012-03-03T15:36:32Z</time>
      </trkpt>
      <trkpt lat="49.369" lon="3.25482">
        <ele>60.461708</ele>
        <time>2012-03-03T15:36:45Z</time>
      </trkpt>
      <trkpt lat="49.36813" lon="3.25535">
        <ele>63.461376</ele>
        <time>2012-03-03T15:36:59Z</time>
      </trkpt>
      <trkpt lat="49.36725" lon="3.25488">
        <ele>83.461113</ele>
        <time>2012-03-03T15:37:23Z</time>
      </trkpt>
      <trkpt lat="49.36642" lon="3.25561">
        <ele>87.460785</ele>
        <time>2012-03-03T15:37:32Z</time>
      </trkpt>
      <trkpt lat="49.36555" lon="3.25607">
        <ele>97.460464</ele>
        <time>2012-03-03T15:37:40Z</time>
      </trkpt>
      <trkpt lat="49.36503" lon="3.2572">
        <ele>105.460205</ele>
        <time>2012-03-03T15:37:49Z</time>
      </trkpt>
      <trkpt lat="49.36411" lon="3.2574">
        <ele>121.459885</ele>
        <time>2012-03-03T15:38:22Z</time>
      </trkpt>
      <trkpt lat="49.36329" lon="3.25672">
        <ele>123.459656</ele>
        <time>2012-03-03T15:38:31Z</time>
      </trkpt>
      <trkpt lat="49.36239" lon="3.25705">
        <ele>121.459328</ele>
        <time>2012-03-03T15:38:45Z</time>
      </trkpt>
      <trkpt lat="49.36182" lon="3.25823">
        <ele>112.459061</ele>
        <time>2012-03-03T15:39:19Z</time>
      </trkpt>
      <trkpt lat="49.36091" lon="3.25844">
        <ele>92.458733</ele>
        <time>2012-03-03T15:39:30Z</time>
      </trkpt>
      <trkpt lat="49.35996" lon="3.25786">
        <ele>99.45845</ele>
        <time>2012-03-03T15:42:06Z</time>
      </trkpt>
      <trkpt lat="49.35928" lon="3.25679">
        <ele>95.458298</ele>
        <time>2012-03-03T15:42:14Z</time>
      </trkpt>
      <trkpt lat="49.35862" lon="3.25574">
        <ele>91.458145</ele>
        <time>2012-03-03T15:42:22Z</time>
      </trkpt>
      <trkpt lat="49.35801" lon="3.25467">
        <ele>89.458008</ele>
        <time>2012-03-03T15:42:33Z</time>
      </trkpt>
      <trkpt lat="49.3577" lon="3.25337">
        <ele>86.457993</ele>
        <time>2012-03-03T15:42:44Z</time>
      </trkpt>
      <trkpt lat="49.3572" lon="3.25209">
        <ele>83.457916</ele>
        <time>2012-03-03T15:42:53Z</time>
      </trkpt>
      <trkpt lat="49.35684" lon="3.25073">
        <ele>80.457886</ele>
        <time>2012-03-03T15:43:03Z</time>
      </trkpt>
      <trkpt lat="49.35619" lon="3.2497">
        <ele>76.457733</ele>
        <time>2012-03-03T15:43:18Z</time>
      </trkpt>
      <trkpt lat="49.3554" lon="3.24891">
        <ele>73.45752</ele>
        <time>2012-03-03T15:43:28Z</time>
      </trkpt>
      <trkpt lat="49.35446" lon="3.24871">
        <ele>69.457214</ele>
        <time>2012-03-03T15:43:38Z</time>
      </trkpt>
      <trkpt lat="49.35487" lon="3.24747">
        <ele>63.457439</ele>
        <time>2012-03-03T15:44:02Z</time>
      </trkpt>
      <trkpt lat="49.35391" lon="3.24741">
        <ele>59.457119</ele>
        <time>2012-03-03T15:44:13Z</time>
      </trkpt>
      <trkpt lat="49.35313" lon="3.24672">
        <ele>59.456898</ele>
        <time>2012-03-03T15:44:21Z</time>
      </trkpt>
      <trkpt lat="49.35251" lon="3.2457">
        <ele>61.456764</ele>
        <time>2012-03-03T15:44:35Z</time>
      </trkpt>
      <trkpt lat="49.35156" lon="3.24565">
        <ele>63.456444</ele>
        <time>2012-03-03T15:44:56Z</time>
      </trkpt>
      <trkpt lat="49.35095" lon="3.24464">
        <ele>62.456306</ele>
        <time>2012-03-03T15:45:09Z</time>
      </trkpt>
      <trkpt lat="49.35019" lon="3.24367">
        <ele>61.456116</ele>
        <time>2012-03-03T15:45:18Z</time>
      </trkpt>
      <trkpt lat="49.3493" lon="3.24339">
        <ele>63.45583</ele>
        <time>2012-03-03T15:45:31Z</time>
      </trkpt>
      <trkpt lat="49.34899" lon="3.24469">
        <ele>68.455643</ele>
        <time>2012-03-03T15:45:49Z</time>
      </trkpt>
      <trkpt lat="49.34843" lon="3.2458">
        <ele>72.455376</ele>
        <time>2012-03-03T15:46:00Z</time>
      </trkpt>
      <trkpt lat="49.34758" lon="3.24529">
        <ele>73.455124</ele>
        <time>2012-03-03T15:46:08Z</time>
      </trkpt>
      <trkpt lat="49.34669" lon="3.24497">
        <ele>78.454849</ele>
        <time>2012-03-03T15:46:32Z</time>
      </trkpt>
      <trkpt lat="49.34577" lon="3.24504">
        <ele>76.454529</ele>
        <time>2012-03-03T15:46:43Z</time>
      </trkpt>
      <trkpt lat="49.34483" lon="3.24527">
        <ele>75.454193</ele>
        <time>2012-03-03T15:46:53Z</time>
      </trkpt>
      <trkpt lat="49.34396" lon="3.24478">
        <ele>79.453934</ele>
        <time>2012-03-03T15:47:05Z</time>
      </trkpt>
      <trkpt lat="49.3431" lon="3.244">
        <ele>73.453697</ele>
        <time>2012-03-03T15:47:46Z</time>
      </trkpt>
      <trkpt lat="49.34217" lon="3.24335">
        <ele>67.45343</ele>
        <time>2012-03-03T15:48:19Z</time>
      </trkpt>
      <trkpt lat="49.34132" lon="3.24271">
        <ele>69.453186</ele>
        <time>2012-03-03T15:49:15Z</time>
      </trkpt>
      <trkpt lat="49.34049" lon="3.24209">
        <ele>63.452946</ele>
        <time>2012-03-03T15:50:21Z</time>
      </trkpt>
      <trkpt lat="49.33972" lon="3.24285">
        <ele>79.452637</ele>
        <time>2012-03-03T15:51:02Z</time>
      </trkpt>
      <trkpt lat="49.34001" lon="3.24415">
        <ele>89.452644</ele>
        <time>2012-03-03T15:51:19Z</time>
      </trkpt>
      <trkpt lat="49.33979" lon="3.24551">
        <ele>75.452484</ele>
        <time>2012-03-03T15:51:42Z</time>
      </trkpt>
      <trkpt lat="49.34055" lon="3.24647">
        <ele>70.452675</ele>
        <time>2012-03-03T15:52:01Z</time>
      </trkpt>
      <trkpt lat="49.34126" lon="3.24739">
        <ele>69.45285</ele>
        <time>2012-03-03T15:52:11Z</time>
      </trkpt>
      <trkpt lat="49.34066" lon="3.24851">
        <ele>74.452576</ele>
        <time>2012-03-03T15:52:54Z</time>
      </trkpt>
      <trkpt lat="49.33976" lon="3.24856">
        <ele>93.452271</ele>
        <time>2012-03-03T15:53:11Z</time>
      </trkpt>
      <trkpt lat="49.33888" lon="3.24892">
        <ele>104.451942</ele>
        <time>2012-03-03T15:53:21Z</time>
      </trkpt>
      <trkpt lat="49.33796" lon="3.24909">
        <ele>111.451622</ele>
        <time>2012-03-03T15:53:32Z</time>
      </trkpt>
      <trkpt lat="49.33708" lon="3.24951">
        <ele>122.451294</ele>
        <time>2012-03-03T15:53:50Z</time>
      </trkpt>
      <trkpt lat="49.33616" lon="3.2496">
        <ele>126.450981</ele>
        <time>2012-03-03T15:54:02Z</time>
      </trkpt>
      <trkpt lat="49.33529" lon="3.24993">
        <ele>127.450668</ele>
        <time>2012-03-03T15:54:13Z</time>
      </trkpt>
      <trkpt lat="49.33471" lon="3.24888">
        <ele>131.450531</ele>
        <time>2012-03-03T15:54:23Z</time>
      </trkpt>
      <trkpt lat="49.33422" lon="3.24767">
        <ele>132.450455</ele>
        <time>2012-03-03T15:54:30Z</time>
      </trkpt>
      <trkpt lat="49.33373" lon="3.24638">
        <ele>135.450378</ele>
        <time>2012-03-03T15:54:38Z</time>
      </trkpt>
      <trkpt lat="49.33324" lon="3.24504">
        <ele>138.450302</ele>
        <time>2012-03-03T15:54:47Z</time>
      </trkpt>
      <trkpt lat="49.33277" lon="3.24376">
        <ele>138.450226</ele>
        <time>2012-03-03T15:54:55Z</time>
      </trkpt>
      <trkpt lat="49.33231" lon="3.2425">
        <ele>139.45015</ele>
        <time>2012-03-03T15:55:03Z</time>
      </trkpt>
      <trkpt lat="49.33186" lon="3.24129">
        <ele>142.450089</ele>
        <time>2012-03-03T15:55:11Z</time>
      </trkpt>
      <trkpt lat="49.33137" lon="3.24001">
        <ele>143.449997</ele>
        <time>2012-03-03T15:55:20Z</time>
      </trkpt>
      <trkpt lat="49.33096" lon="3.23878">
        <ele>144.449951</ele>
        <time>2012-03-03T15:55:27Z</time>
      </trkpt>
      <trkpt lat="49.33079" lon="3.23742">
        <ele>144.449982</ele>
        <time>2012-03-03T15:55:34Z</time>
      </trkpt>
      <trkpt lat="49.33065" lon="3.23595">
        <ele>145.450027</ele>
        <time>2012-03-03T15:55:41Z</time>
      </trkpt>
      <trkpt lat="49.33049" lon="3.23441">
        <ele>147.450073</ele>
        <time>2012-03-03T15:55:48Z</time>
      </trkpt>
      <trkpt lat="49.33031" lon="3.23281">
        <ele>146.450119</ele>
        <time>2012-03-03T15:55:55Z</time>
      </trkpt>
      <trkpt lat="49.33014" lon="3.2314">
        <ele>146.450165</ele>
        <time>2012-03-03T15:56:01Z</time>
      </trkpt>
      <trkpt lat="49.33082" lon="3.23038">
        <ele>147.450455</ele>
        <time>2012-03-03T15:56:15Z</time>
      </trkpt>
      <trkpt lat="49.33177" lon="3.23018">
        <ele>145.45079</ele>
        <time>2012-03-03T15:56:23Z</time>
      </trkpt>
      <trkpt lat="49.33276" lon="3.22995">
        <ele>145.451141</ele>
        <time>2012-03-03T15:56:30Z</time>
      </trkpt>
      <trkpt lat="49.3337" lon="3.22972">
        <ele>143.451477</ele>
        <time>2012-03-03T15:56:37Z</time>
      </trkpt>
      <trkpt lat="49.33403" lon="3.22833">
        <ele>143.451675</ele>
        <time>2012-03-03T15:56:58Z</time>
      </trkpt>
      <trkpt lat="49.33413" lon="3.2268">
        <ele>145.451813</ele>
        <time>2012-03-03T15:57:08Z</time>
      </trkpt>
      <trkpt lat="49.33421" lon="3.22541">
        <ele>148.451935</ele>
        <time>2012-03-03T15:57:15Z</time>
      </trkpt>
      <trkpt lat="49.33428" lon="3.22393">
        <ele>150.452057</ele>
        <time>2012-03-03T15:57:22Z</time>
      </trkpt>
      <trkpt lat="49.33437" lon="3.22248">
        <ele>151.452179</ele>
        <time>2012-03-03T15:57:29Z</time>
      </trkpt>
      <trkpt lat="49.33446" lon="3.22097">
        <ele>154.452316</ele>
        <time>2012-03-03T15:57:36Z</time>
      </trkpt>
      <trkpt lat="49.33454" lon="3.21941">
        <ele>159.452454</ele>
        <time>2012-03-03T15:57:43Z</time>
      </trkpt>
      <trkpt lat="49.33451" lon="3.21801">
        <ele>162.45253</ele>
        <time>2012-03-03T15:57:56Z</time>
      </trkpt>
      <trkpt lat="49.33363" lon="3.21745">
        <ele>161.452271</ele>
        <time>2012-03-03T15:58:05Z</time>
      </trkpt>
      <trkpt lat="49.33278" lon="3.21688">
        <ele>159.452026</ele>
        <time>2012-03-03T15:58:14Z</time>
      </trkpt>
      <trkpt lat="49.33186" lon="3.21631">
        <ele>154.451752</ele>
        <time>2012-03-03T15:58:25Z</time>
      </trkpt>
      <trkpt lat="49.33093" lon="3.21623">
        <ele>152.451431</ele>
        <time>2012-03-03T15:58:34Z</time>
      </trkpt>
      <trkpt lat="49.33" lon="3.21628">
        <ele>149.451111</ele>
        <time>2012-03-03T15:58:41Z</time>
      </trkpt>
      <trkpt lat="49.33006" lon="3.21478">
        <ele>144.451233</ele>
        <time>2012-03-03T15:58:52Z</time>
      </trkpt>
      <trkpt lat="49.32991" lon="3.21328">
        <ele>143.451294</ele>
        <time>2012-03-03T15:58:59Z</time>
      </trkpt>
      <trkpt lat="49.32985" lon="3.21189">
        <ele>141.451355</ele>
        <time>2012-03-03T15:59:06Z</time>
      </trkpt>
      <trkpt lat="49.32967" lon="3.21044">
        <ele>140.451385</ele>
        <time>2012-03-03T15:59:15Z</time>
      </trkpt>
      <trkpt lat="49.32989" lon="3.20901">
        <ele>142.451569</ele>
        <time>2012-03-03T15:59:26Z</time>
      </trkpt>
      <trkpt lat="49.32972" lon="3.20744">
        <ele>143.451599</ele>
        <time>2012-03-03T15:59:34Z</time>
      </trkpt>
      <trkpt lat="49.32973" lon="3.20606">
        <ele>142.451706</ele>
        <time>2012-03-03T15:59:40Z</time>
      </trkpt>
      <trkpt lat="49.32977" lon="3.20448">
        <ele>142.451828</ele>
        <time>2012-03-03T15:59:47Z</time>
      </trkpt>
      <trkpt lat="49.32984" lon="3.20306">
        <ele>143.451935</ele>
        <time>2012-03-03T15:59:53Z</time>
      </trkpt>
      <trkpt lat="49.32989" lon="3.20154">
        <ele>143.452057</ele>
        <time>2012-03-03T15:59:59Z</time>
      </trkpt>
      <trkpt lat="49.32998" lon="3.20005">
        <ele>144.452194</ele>
        <time>2012-03-03T16:00:05Z</time>
      </trkpt>
      <trkpt lat="49.33008" lon="3.19866">
        <ele>143.452316</ele>
        <time>2012-03-03T16:00:11Z</time>
      </trkpt>
      <trkpt lat="49.33024" lon="3.19709">
        <ele>143.452469</ele>
        <time>2012-03-03T16:00:18Z</time>
      </trkpt>
      <trkpt lat="49.32987" lon="3.19569">
        <ele>145.452438</ele>
        <time>2012-03-03T16:00:28Z</time>
      </trkpt>
      <trkpt lat="49.32922" lon="3.19455">
        <ele>148.452301</ele>
        <time>2012-03-03T16:00:35Z</time>
      </trkpt>
      <trkpt lat="49.3286" lon="3.19341">
        <ele>149.452164</ele>
        <time>2012-03-03T16:00:41Z</time>
      </trkpt>
      <trkpt lat="49.32792" lon="3.19223">
        <ele>150.452011</ele>
        <time>2012-03-03T16:00:47Z</time>
      </trkpt>
      <trkpt lat="49.32717" lon="3.19114">
        <ele>153.451828</ele>
        <time>2012-03-03T16:00:53Z</time>
      </trkpt>
      <trkpt lat="49.3264" lon="3.19043">
        <ele>153.451614</ele>
        <time>2012-03-03T16:00:59Z</time>
      </trkpt>
      <trkpt lat="49.32554" lon="3.18965">
        <ele>152.45137</ele>
        <time>2012-03-03T16:01:05Z</time>
      </trkpt>
      <trkpt lat="49.32472" lon="3.18865">
        <ele>153.451157</ele>
        <time>2012-03-03T16:01:11Z</time>
      </trkpt>
      <trkpt lat="49.32401" lon="3.18768">
        <ele>152.450989</ele>
        <time>2012-03-03T16:01:17Z</time>
      </trkpt>
      <trkpt lat="49.3234" lon="3.18656">
        <ele>148.450851</ele>
        <time>2012-03-03T16:01:28Z</time>
      </trkpt>
      <trkpt lat="49.32271" lon="3.18556">
        <ele>142.450684</ele>
        <time>2012-03-03T16:01:49Z</time>
      </trkpt>
      <trkpt lat="49.32245" lon="3.18423">
        <ele>140.450684</ele>
        <time>2012-03-03T16:01:57Z</time>
      </trkpt>
      <trkpt lat="49.32213" lon="3.18283">
        <ele>138.450653</ele>
        <time>2012-03-03T16:02:05Z</time>
      </trkpt>
      <trkpt lat="49.32175" lon="3.18157">
        <ele>136.450623</ele>
        <time>2012-03-03T16:02:13Z</time>
      </trkpt>
      <trkpt lat="49.32085" lon="3.18143">
        <ele>117.450317</ele>
        <time>2012-03-03T16:02:42Z</time>
      </trkpt>
    </trkseg>
  </trk>
</gpx>